createdAt,value
2018-06-02T00:01:54.905Z,19.70
2018-06-02T00:04:21.734Z,19.60
2018-06-02T00:06:47.986Z,19.60
2018-06-02T00:09:14.246Z,19.50
2018-06-02T00:11:40.230Z,19.50
2018-06-02T00:14:06.489Z,19.40
2018-06-02T00:16:33.216Z,19.40
2018-06-02T00:19:00.038Z,19.40
2018-06-02T00:21:25.983Z,19.40
2018-06-02T00:23:52.040Z,19.40
2018-06-02T00:26:18.078Z,19.40
2018-06-02T00:28:44.030Z,19.40
2018-06-02T00:31:10.858Z,19.40
2018-06-02T00:33:36.779Z,19.50
2018-06-02T00:36:03.092Z,19.40
2018-06-02T00:38:29.395Z,19.40
2018-06-02T00:40:55.413Z,19.50
2018-06-02T00:43:21.386Z,19.60
2018-06-02T00:45:47.418Z,19.70
2018-06-02T00:48:13.359Z,19.80
2018-06-02T00:50:39.304Z,19.80
2018-06-02T00:53:05.246Z,19.80
2018-06-02T00:55:31.238Z,19.90
2018-06-02T00:57:57.174Z,19.90
2018-06-02T01:00:23.108Z,19.90
2018-06-02T01:02:49.071Z,19.90
2018-06-02T01:05:15.031Z,19.90
2018-06-02T01:07:40.984Z,19.90
2018-06-02T01:10:07.746Z,19.80
2018-06-02T01:12:33.746Z,19.80
2018-06-02T01:15:00.549Z,19.60
2018-06-02T01:17:26.591Z,19.60
2018-06-02T01:19:52.573Z,19.60
2018-06-02T01:22:18.548Z,19.60
2018-06-02T01:24:45.322Z,19.60
2018-06-02T01:27:11.310Z,19.60
2018-06-02T01:29:38.079Z,19.50
2018-06-02T01:32:04.352Z,19.50
2018-06-02T01:34:30.410Z,19.50
2018-06-02T01:36:56.471Z,19.40
2018-06-02T01:39:22.479Z,19.40
2018-06-02T01:41:48.622Z,19.40
2018-06-02T01:44:14.628Z,19.40
2018-06-02T01:46:40.620Z,19.30
2018-06-02T01:49:08.094Z,19.30
2018-06-02T01:51:34.055Z,19.30
2018-06-02T01:54:00.395Z,19.20
2018-06-02T01:56:26.639Z,19.30
2018-06-02T01:58:52.653Z,19.20
2018-06-02T02:01:18.966Z,19.20
2018-06-02T02:03:45.988Z,19.10
2018-06-02T02:06:12.157Z,19.00
2018-06-02T02:08:38.713Z,19.00
2018-06-02T02:11:05.052Z,19.00
2018-06-02T02:13:32.037Z,18.90
2018-06-02T02:15:58.574Z,18.90
2018-06-02T02:18:25.063Z,18.90
2018-06-02T02:20:51.349Z,18.80
2018-06-02T02:23:18.210Z,18.80
2018-06-02T02:25:45.167Z,18.80
2018-06-02T02:28:12.469Z,18.70
2018-06-02T02:30:38.492Z,18.70
2018-06-02T02:33:04.650Z,18.70
2018-06-02T02:35:31.111Z,18.60
2018-06-02T02:37:57.210Z,18.60
2018-06-02T02:40:23.421Z,18.50
2018-06-02T02:42:49.871Z,18.60
2018-06-02T02:45:15.930Z,18.50
2018-06-02T02:47:42.981Z,18.40
2018-06-02T02:50:08.994Z,18.40
2018-06-02T02:52:37.638Z,18.40
2018-06-02T02:55:03.603Z,18.50
2018-06-02T02:57:35.775Z,18.50
2018-06-02T03:00:01.783Z,18.40
2018-06-02T03:02:27.795Z,18.30
2018-06-02T03:04:54.036Z,18.20
2018-06-02T03:07:20.800Z,18.20
2018-06-02T03:09:46.794Z,18.10
2018-06-02T03:12:13.800Z,18.00
2018-06-02T03:14:40.824Z,17.90
2018-06-02T03:17:08.538Z,18.00
2018-06-02T03:19:35.275Z,18.00
2018-06-02T03:22:02.170Z,18.00
2018-06-02T03:24:28.988Z,18.00
2018-06-02T03:26:55.138Z,18.10
2018-06-02T03:29:21.890Z,18.10
2018-06-02T03:31:48.573Z,18.20
2018-06-02T03:34:16.575Z,18.20
2018-06-02T03:36:44.174Z,18.20
2018-06-02T03:39:11.113Z,18.30
2018-06-02T03:41:37.913Z,18.20
2018-06-02T03:44:06.200Z,18.30
2018-06-02T03:46:32.635Z,18.30
2018-06-02T03:48:59.744Z,18.30
2018-06-02T03:51:26.720Z,18.20
2018-06-02T03:53:54.418Z,18.30
2018-06-02T03:56:21.937Z,18.20
2018-06-02T03:58:49.571Z,18.20
2018-06-02T04:01:16.286Z,18.20
2018-06-02T04:03:42.363Z,18.20
2018-06-02T04:06:10.070Z,18.20
2018-06-02T04:08:36.031Z,18.20
2018-06-02T04:11:03.543Z,18.20
2018-06-02T04:13:30.371Z,18.20
2018-06-02T04:15:56.573Z,18.20
2018-06-02T04:18:23.543Z,18.20
2018-06-02T04:20:51.305Z,18.30
2018-06-02T04:23:17.394Z,18.30
2018-06-02T04:25:44.168Z,18.30
2018-06-02T04:28:11.328Z,18.30
2018-06-02T04:30:37.674Z,18.30
2018-06-02T04:33:05.432Z,18.30
2018-06-02T04:35:31.826Z,18.40
2018-06-02T04:37:58.416Z,18.50
2018-06-02T04:40:24.739Z,18.50
2018-06-02T04:42:51.058Z,18.50
2018-06-02T04:45:18.742Z,18.40
2018-06-02T04:47:45.355Z,18.40
2018-06-02T04:50:13.043Z,18.60
2018-06-02T04:52:39.898Z,18.50
2018-06-02T04:55:07.060Z,18.70
2018-06-02T04:57:34.716Z,18.70
2018-06-02T05:00:01.107Z,18.70
2018-06-02T05:02:28.136Z,18.70
2018-06-02T05:04:55.846Z,18.80
2018-06-02T05:07:22.268Z,18.90
2018-06-02T05:09:49.201Z,19.00
2018-06-02T05:12:27.456Z,18.90
2018-06-02T05:14:53.966Z,19.00
2018-06-02T05:17:20.781Z,19.00
2018-06-02T05:19:49.081Z,19.10
2018-06-02T05:22:15.790Z,19.10
2018-06-02T05:24:42.199Z,19.10
2018-06-02T05:27:09.120Z,19.00
2018-06-02T05:29:37.811Z,18.90
2018-06-02T05:32:04.939Z,18.90
2018-06-02T05:34:31.179Z,19.10
2018-06-02T05:36:57.291Z,19.00
2018-06-02T05:39:38.262Z,19.00
2018-06-02T05:42:04.650Z,18.90
2018-06-02T05:44:30.789Z,18.90
2018-06-02T05:46:56.850Z,18.90
2018-06-02T05:49:23.915Z,19.00
2018-06-02T05:51:50.884Z,19.10
2018-06-02T05:54:18.261Z,19.20
2018-06-02T05:56:47.402Z,19.20
2018-06-02T05:59:14.271Z,19.30
2018-06-02T06:01:42.164Z,19.20
2018-06-02T06:04:10.606Z,19.30
2018-06-02T06:06:39.283Z,19.30
2018-06-02T06:09:05.947Z,19.30
2018-06-02T06:11:31.928Z,19.40
2018-06-02T06:13:58.168Z,19.20
2018-06-02T06:16:25.200Z,19.20
2018-06-02T06:18:52.082Z,19.20
2018-06-02T06:21:18.523Z,19.20
2018-06-02T06:23:45.978Z,19.30
2018-06-02T06:26:13.922Z,19.40
2018-06-02T06:28:42.695Z,19.40
2018-06-02T06:31:09.478Z,19.40
2018-06-02T06:33:37.766Z,19.30
2018-06-02T06:36:04.088Z,19.40
2018-06-02T06:38:31.335Z,19.40
2018-06-02T06:40:58.038Z,19.60
2018-06-02T06:43:27.477Z,19.60
2018-06-02T06:45:53.590Z,19.60
2018-06-02T06:48:20.784Z,19.60
2018-06-02T06:50:48.236Z,19.70
2018-06-02T06:53:16.594Z,19.90
2018-06-02T06:55:42.794Z,20.00
2018-06-02T06:58:09.555Z,20.00
2018-06-02T07:00:37.106Z,20.30
2018-06-02T07:03:03.486Z,20.30
2018-06-02T07:05:29.772Z,20.30
2018-06-02T07:07:56.603Z,20.40
2018-06-02T07:10:23.426Z,20.50
2018-06-02T07:12:50.359Z,20.50
2018-06-02T07:15:16.397Z,20.60
2018-06-02T07:17:43.300Z,20.60
2018-06-02T07:20:10.497Z,20.90
2018-06-02T07:22:36.557Z,20.90
2018-06-02T07:25:02.837Z,21.00
2018-06-02T07:27:28.967Z,20.90
2018-06-02T07:29:57.318Z,20.80
2018-06-02T07:32:24.104Z,20.80
2018-06-02T07:34:51.271Z,20.80
2018-06-02T07:37:17.469Z,20.80
2018-06-02T07:39:43.407Z,20.90
2018-06-02T07:42:09.366Z,21.00
2018-06-02T07:44:35.298Z,21.00
2018-06-02T07:47:01.279Z,20.90
2018-06-02T07:49:27.191Z,20.90
2018-06-02T07:51:53.117Z,20.90
2018-06-02T07:54:19.037Z,20.90
2018-06-02T07:56:44.962Z,20.90
2018-06-02T07:59:10.889Z,21.00
2018-06-02T08:01:36.836Z,21.10
2018-06-02T08:04:02.831Z,21.30
2018-06-02T08:06:28.789Z,21.40
2018-06-02T08:08:54.738Z,21.40
2018-06-02T08:11:20.622Z,21.50
2018-06-02T08:13:46.552Z,21.60
2018-06-02T08:16:12.455Z,21.70
2018-06-02T08:18:38.430Z,21.70
2018-06-02T08:21:04.318Z,21.70
2018-06-02T08:23:30.272Z,21.70
2018-06-02T08:25:56.172Z,21.80
2018-06-02T08:28:22.114Z,21.80
2018-06-02T08:30:48.001Z,22.00
2018-06-02T08:33:13.919Z,22.00
2018-06-02T08:35:39.819Z,22.10
2018-06-02T08:38:05.774Z,22.20
2018-06-02T08:40:32.459Z,22.10
2018-06-02T08:42:58.374Z,22.10
2018-06-02T08:45:24.303Z,22.40
2018-06-02T08:47:50.214Z,22.50
2018-06-02T08:50:16.126Z,22.40
2018-06-02T08:52:42.018Z,22.40
2018-06-02T08:55:08.682Z,22.30
2018-06-02T08:57:39.090Z,22.30
2018-06-02T09:00:05.213Z,22.30
2018-06-02T09:02:31.862Z,22.40
2018-06-02T09:04:57.818Z,22.40
2018-06-02T09:07:23.735Z,22.30
2018-06-02T09:09:49.674Z,22.30
2018-06-02T09:12:15.654Z,22.40
2018-06-02T09:14:41.605Z,22.30
2018-06-02T09:17:07.559Z,22.50
2018-06-02T09:19:35.252Z,22.60
2018-06-02T09:22:01.709Z,22.70
2018-06-02T09:24:27.622Z,22.80
2018-06-02T09:26:53.586Z,22.90
2018-06-02T09:29:20.146Z,23.00
2018-06-02T09:31:46.245Z,23.00
2018-06-02T09:34:12.152Z,23.10
2018-06-02T09:36:38.060Z,23.30
2018-06-02T09:39:03.968Z,23.30
2018-06-02T09:41:29.914Z,23.30
2018-06-02T09:43:55.818Z,23.20
2018-06-02T09:46:21.733Z,23.30
2018-06-02T09:48:47.670Z,23.30
2018-06-02T09:51:13.584Z,23.40
2018-06-02T09:53:39.539Z,23.50
2018-06-02T09:56:05.449Z,23.40
2018-06-02T09:58:31.380Z,23.50
2018-06-02T10:00:57.327Z,23.70
2018-06-02T10:03:24.906Z,24.20
2018-06-02T10:05:50.836Z,24.10
2018-06-02T10:08:16.764Z,24.30
2018-06-02T10:10:42.673Z,24.30
2018-06-02T10:13:08.648Z,24.20
2018-06-02T10:15:34.550Z,24.30
2018-06-02T10:18:00.463Z,24.30
2018-06-02T10:20:26.358Z,24.20
2018-06-02T10:22:52.300Z,24.30
2018-06-02T10:25:18.201Z,24.30
2018-06-02T10:27:44.125Z,24.30
2018-06-02T10:30:11.158Z,24.30
2018-06-02T10:32:37.122Z,24.20
2018-06-02T10:35:03.050Z,24.00
2018-06-02T10:37:28.963Z,23.90
2018-06-02T10:39:54.879Z,23.80
2018-06-02T10:42:20.838Z,23.70
2018-06-02T10:44:46.798Z,23.90
2018-06-02T10:47:12.693Z,23.80
2018-06-02T10:49:38.627Z,23.80
2018-06-02T10:52:05.271Z,23.80
2018-06-02T10:54:31.178Z,23.70
2018-06-02T10:56:57.837Z,23.50
2018-06-02T10:59:23.744Z,23.50
2018-06-02T11:01:50.405Z,23.40
2018-06-02T11:04:16.322Z,23.30
2018-06-02T11:06:42.272Z,23.30
2018-06-02T11:09:08.225Z,23.50
2018-06-02T11:11:34.159Z,23.50
2018-06-02T11:14:00.071Z,23.70
2018-06-02T11:16:25.994Z,23.90
2018-06-02T11:18:51.914Z,24.00
2018-06-02T11:21:17.833Z,24.20
2018-06-02T11:23:43.735Z,24.40
2018-06-02T11:26:09.657Z,24.50
2018-06-02T11:28:35.588Z,24.60
2018-06-02T11:31:01.514Z,24.80
2018-06-02T11:33:27.413Z,25.20
2018-06-02T11:35:54.031Z,25.40
2018-06-02T11:38:20.171Z,25.60
2018-06-02T11:40:46.938Z,25.80
2018-06-02T11:43:12.924Z,25.80
2018-06-02T11:45:38.863Z,25.70
2018-06-02T11:48:04.865Z,25.70
2018-06-02T11:50:30.946Z,25.70
2018-06-02T11:52:59.195Z,25.60
2018-06-02T11:55:25.324Z,25.60
2018-06-02T11:57:52.857Z,25.60
2018-06-02T12:00:19.813Z,25.70
2018-06-02T12:02:45.791Z,25.70
2018-06-02T12:05:11.750Z,25.80
2018-06-02T12:07:37.789Z,25.90
2018-06-02T12:10:03.752Z,26.10
2018-06-02T12:12:29.780Z,26.00
2018-06-02T12:14:55.976Z,25.90
2018-06-02T12:17:22.031Z,26.00
2018-06-02T12:19:48.042Z,26.20
2018-06-02T12:22:14.289Z,26.50
2018-06-02T12:24:40.270Z,26.60
2018-06-02T12:27:06.225Z,26.90
2018-06-02T12:29:32.204Z,27.20
2018-06-02T12:31:58.129Z,27.30
2018-06-02T12:34:24.052Z,27.10
2018-06-02T12:36:49.958Z,27.10
2018-06-02T12:39:15.871Z,27.30
2018-06-02T12:41:41.855Z,27.40
2018-06-02T12:44:08.545Z,27.60
2018-06-02T12:46:34.527Z,27.60
2018-06-02T12:49:00.495Z,27.90
2018-06-02T12:51:26.442Z,27.90
2018-06-02T12:53:52.384Z,28.00
2018-06-02T12:56:18.610Z,27.80
2018-06-02T12:58:44.846Z,27.60
2018-06-02T13:01:11.966Z,27.80
2018-06-02T13:03:41.806Z,28.20
2018-06-02T13:06:08.988Z,28.10
2018-06-02T13:08:36.899Z,28.30
2018-06-02T13:11:04.895Z,28.50
2018-06-02T13:13:32.496Z,28.50
2018-06-02T13:15:58.419Z,28.50
2018-06-02T13:18:24.383Z,28.50
2018-06-02T13:20:51.054Z,28.40
2018-06-02T13:23:16.948Z,28.40
2018-06-02T13:25:43.603Z,28.20
2018-06-02T13:28:09.509Z,28.30
2018-06-02T13:30:36.150Z,28.50
2018-06-02T13:33:02.811Z,28.80
2018-06-02T13:35:28.790Z,28.70
2018-06-02T13:37:54.711Z,28.90
2018-06-02T13:40:20.667Z,28.80
2018-06-02T13:42:46.591Z,28.60
2018-06-02T13:45:12.566Z,28.50
2018-06-02T13:47:38.470Z,28.50
2018-06-02T13:50:04.381Z,28.60
2018-06-02T13:52:30.344Z,28.60
2018-06-02T13:54:56.260Z,28.60
2018-06-02T13:57:22.207Z,28.60
2018-06-02T13:59:48.125Z,28.50
2018-06-02T14:02:14.065Z,28.30
2018-06-02T14:04:39.961Z,28.50
2018-06-02T14:07:06.618Z,28.60
2018-06-02T14:09:32.537Z,28.60
2018-06-02T14:11:58.472Z,28.70
2018-06-02T14:14:24.431Z,28.50
2018-06-02T14:16:50.339Z,28.60
2018-06-02T14:19:16.291Z,28.50
2018-06-02T16:59:24.308Z,27.30
2018-06-02T17:10:52.181Z,27.10
2018-06-02T17:13:19.339Z,27.00
2018-06-02T17:15:49.646Z,26.90
2018-06-02T17:18:20.454Z,26.80
2018-06-02T17:20:48.632Z,26.70
2018-06-02T17:23:16.119Z,26.60
2018-06-02T17:25:43.362Z,26.60
2018-06-02T17:28:12.228Z,26.50
2018-06-02T17:30:39.751Z,26.30
2018-06-02T17:33:06.481Z,26.20
2018-06-02T17:35:34.998Z,26.00
2018-06-02T17:38:02.748Z,26.00
2018-06-02T17:40:29.254Z,26.00
2018-06-02T17:42:55.328Z,26.00
2018-06-02T17:45:21.688Z,26.00
2018-06-02T17:47:47.648Z,25.90
2018-06-02T17:50:13.559Z,26.00
2018-06-02T17:52:39.457Z,26.00
2018-06-02T17:55:05.414Z,26.10
2018-06-02T17:57:31.324Z,25.90
2018-06-02T17:59:57.274Z,25.80
2018-06-02T18:02:23.200Z,25.90
2018-06-02T18:04:49.181Z,25.90
2018-06-02T18:07:16.716Z,25.80
2018-06-02T18:09:43.410Z,25.80
2018-06-02T18:12:09.379Z,25.80
2018-06-02T18:14:37.807Z,25.80
2018-06-02T18:17:06.118Z,25.80
2018-06-02T18:19:32.101Z,25.80
2018-06-02T18:21:58.382Z,25.80
2018-06-02T18:24:25.869Z,25.90
2018-06-02T18:26:52.648Z,25.90
2018-06-02T18:29:19.669Z,26.00
2018-06-02T18:31:46.493Z,26.00
2018-06-02T18:34:14.217Z,25.90
2018-06-02T18:36:40.176Z,25.90
2018-06-02T18:39:08.723Z,25.80
2018-06-02T18:41:35.770Z,25.70
2018-06-02T18:44:01.720Z,25.70
2018-06-02T18:46:29.140Z,25.60
2018-06-02T18:48:56.758Z,25.50
2018-06-02T18:51:23.990Z,25.50
2018-06-02T18:53:50.376Z,25.50
2018-06-02T18:56:17.930Z,25.30
2018-06-02T18:58:44.736Z,25.20
2018-06-02T19:01:11.965Z,25.10
2018-06-02T19:03:38.843Z,25.10
2018-06-02T19:06:04.931Z,25.00
2018-06-02T19:08:31.491Z,24.90
2018-06-02T19:10:58.426Z,24.90
2018-06-02T19:13:25.238Z,24.80
2018-06-02T19:15:52.356Z,24.80
2018-06-02T19:18:19.207Z,24.70
2018-06-02T19:20:45.922Z,24.70
2018-06-02T19:23:12.725Z,24.60
2018-06-02T19:25:38.735Z,24.50
2018-06-02T19:28:05.880Z,24.50
2018-06-02T19:30:33.460Z,24.40
2018-06-02T19:33:01.062Z,24.40
2018-06-02T19:35:28.019Z,24.30
2018-06-02T19:37:55.374Z,24.20
2018-06-02T19:40:24.959Z,24.10
2018-06-02T19:42:52.085Z,24.00
2018-06-02T19:45:21.729Z,23.90
2018-06-02T19:47:51.545Z,23.90
2018-06-02T19:50:18.419Z,23.90
2018-06-02T19:52:47.020Z,23.80
2018-06-02T19:55:13.433Z,23.80
2018-06-02T19:57:44.179Z,23.70
2018-06-02T20:00:10.995Z,23.70
2018-06-02T20:02:37.950Z,23.60
2018-06-02T20:05:05.481Z,23.60
2018-06-02T20:07:33.050Z,23.40
2018-06-02T20:10:00.879Z,23.40
2018-06-02T20:12:27.778Z,23.40
2018-06-02T20:14:54.746Z,23.30
2018-06-02T20:17:21.580Z,23.20
2018-06-02T20:19:47.726Z,23.20
2018-06-02T20:22:14.507Z,23.10
2018-06-02T20:24:41.216Z,23.00
2018-06-02T20:27:07.969Z,23.00
2018-06-02T20:29:34.934Z,22.90
2018-06-02T20:32:01.280Z,22.90
2018-06-02T20:34:28.079Z,22.90
2018-06-02T20:36:54.627Z,22.90
2018-06-02T20:39:21.420Z,22.80
2018-06-02T20:41:47.781Z,22.80
2018-06-02T20:44:14.249Z,22.70
2018-06-02T20:46:41.344Z,22.70
2018-06-02T20:49:08.837Z,22.70
2018-06-02T20:51:34.814Z,22.60
2018-06-02T20:54:01.079Z,22.60
2018-06-02T20:56:28.659Z,22.60
2018-06-02T20:58:55.587Z,22.50
2018-06-02T21:01:22.594Z,22.50
2018-06-02T21:03:49.364Z,22.50
2018-06-02T21:06:15.342Z,22.40
2018-06-02T21:08:41.296Z,22.40
2018-06-02T21:11:07.812Z,22.40
2018-06-02T21:13:34.883Z,22.30
2018-06-02T21:16:02.387Z,22.30
2018-06-02T21:18:28.616Z,22.30
2018-06-02T21:20:55.392Z,22.30
2018-06-02T21:23:21.385Z,22.30
2018-06-02T21:25:48.472Z,22.20
2018-06-02T21:28:15.786Z,22.20
2018-06-02T21:30:42.513Z,22.20
2018-06-02T21:33:09.774Z,22.10
2018-06-02T21:35:37.023Z,22.10
2018-06-02T21:38:03.507Z,22.00
2018-06-02T21:40:30.050Z,21.90
2018-06-02T21:42:56.543Z,21.90
2018-06-02T21:45:23.817Z,21.80
2018-06-02T21:47:50.578Z,21.70
2018-06-02T21:50:18.127Z,21.60
2018-06-02T21:52:45.344Z,21.60
2018-06-02T21:55:12.920Z,21.60
2018-06-02T21:57:39.778Z,21.60
2018-06-02T22:00:05.784Z,21.50
2018-06-02T22:02:32.191Z,21.50
2018-06-02T22:04:59.751Z,21.50
2018-06-02T22:07:27.235Z,21.40
2018-06-02T22:09:53.482Z,21.40
2018-06-02T22:12:20.707Z,21.30
2018-06-02T22:14:47.066Z,21.30
2018-06-02T22:17:13.259Z,21.20
2018-06-02T22:19:40.095Z,21.20
2018-06-02T22:22:07.308Z,21.20
